createdAt,value
2019-02-10T00:00:58.042Z,99213.98
2019-02-10T00:04:17.892Z,99206.16
2019-02-10T00:07:35.932Z,99202.88
2019-02-10T00:11:01.040Z,99209.77
2019-02-10T00:14:39.729Z,99209.09
2019-02-10T00:18:00.726Z,99194.42
2019-02-10T00:21:22.320Z,99184.52
2019-02-10T00:24:54.884Z,99176.24
2019-02-10T00:28:32.387Z,99174.83
2019-02-10T00:31:52.926Z,99171.88
2019-02-10T00:35:12.432Z,99177.52
2019-02-10T00:38:40.234Z,99176.48
2019-02-10T00:42:10.071Z,99177.16
2019-02-10T00:45:30.094Z,99167.80
2019-02-10T00:48:59.774Z,99172.41
2019-02-10T00:52:38.896Z,99163.16
2019-02-10T00:56:12.505Z,99170.64
2019-02-10T00:59:38.282Z,99160.14
2019-02-10T01:02:49.944Z,99150.54
2019-02-10T01:06:17.133Z,99139.15
2019-02-10T01:09:50.347Z,99131.63
2019-02-10T01:13:14.641Z,99121.61
2019-02-10T01:16:47.730Z,99115.61
2019-02-10T01:23:58.206Z,99114.11
2019-02-10T01:27:18.375Z,99110.05
2019-02-10T01:30:44.336Z,99105.98
2019-02-10T01:33:56.309Z,99099.80
2019-02-10T01:37:25.202Z,99101.37
2019-02-10T01:40:53.978Z,99093.41
2019-02-10T01:44:27.301Z,99080.73
2019-02-10T01:47:49.944Z,99072.03
2019-02-10T01:51:05.772Z,99064.80
2019-02-10T01:54:23.470Z,99057.70
2019-02-10T01:57:54.633Z,99050.38
2019-02-10T02:01:24.848Z,99046.84
2019-02-10T02:05:02.856Z,99033.39
2019-02-10T02:08:31.251Z,99017.03
2019-02-10T02:11:50.531Z,99008.69
2019-02-10T02:15:09.430Z,98999.96
2019-02-10T02:18:33.237Z,98989.38
2019-02-10T02:21:58.684Z,98984.80
2019-02-10T02:25:20.246Z,98986.13
2019-02-10T02:28:38.696Z,98971.39
2019-02-10T02:32:19.469Z,98970.91
2019-02-10T02:35:35.076Z,98961.69
2019-02-10T02:39:09.237Z,98945.06
2019-02-10T02:42:36.279Z,98930.80
2019-02-10T02:46:01.253Z,98930.00
2019-02-10T02:49:32.922Z,98924.65
2019-02-10T02:52:46.254Z,98903.99
2019-02-10T02:56:03.720Z,98904.44
2019-02-10T02:59:35.314Z,98898.33
2019-02-10T03:02:55.924Z,98891.67
2019-02-10T03:06:14.945Z,98882.73
2019-02-10T03:09:52.304Z,98885.70
2019-02-10T03:13:07.969Z,98880.34
2019-02-10T03:16:32.133Z,98880.59
2019-02-10T03:19:44.891Z,98879.66
2019-02-10T03:23:03.221Z,98873.47
2019-02-10T03:26:17.409Z,98856.73
2019-02-10T03:29:35.643Z,98851.14
2019-02-10T03:33:14.525Z,98848.30
2019-02-10T03:36:51.574Z,98845.06
2019-02-10T03:40:19.173Z,98834.55
2019-02-10T03:43:24.309Z,98815.85
2019-02-10T03:46:29.498Z,98813.05
2019-02-10T03:49:34.634Z,98798.86
2019-02-10T03:52:39.758Z,98801.08
2019-02-10T03:55:44.848Z,98794.51
2019-02-10T03:58:50.143Z,98777.56
2019-02-10T04:01:55.333Z,98775.88
2019-02-10T04:05:00.460Z,98766.05
2019-02-10T04:08:05.761Z,98759.91
2019-02-10T04:11:10.908Z,98746.66
2019-02-10T04:14:16.081Z,98732.53
2019-02-10T04:17:21.164Z,98723.98
2019-02-10T04:20:26.311Z,98713.78
2019-02-10T04:23:31.421Z,98720.13
2019-02-10T04:26:37.672Z,98710.05
2019-02-10T04:29:42.918Z,98700.39
2019-02-10T04:32:47.992Z,98696.22
2019-02-10T04:35:54.209Z,98687.15
2019-02-10T04:38:59.537Z,98675.39
2019-02-10T04:42:04.677Z,98670.98
2019-02-10T04:45:09.754Z,98664.05
2019-02-10T04:48:14.906Z,98654.69
2019-02-10T04:51:20.083Z,98644.63
2019-02-10T04:54:25.240Z,98639.72
2019-02-10T04:57:30.386Z,98627.81
2019-02-10T05:00:35.629Z,98614.99
2019-02-10T05:03:40.757Z,98613.53
2019-02-10T05:06:45.858Z,98605.17
2019-02-10T05:09:50.988Z,98590.42
2019-02-10T05:12:56.072Z,98584.98
2019-02-10T05:16:01.207Z,98584.78
2019-02-10T05:19:06.401Z,98573.91
2019-02-10T05:22:11.519Z,98578.13
2019-02-10T05:25:16.645Z,98575.34
2019-02-10T05:28:21.770Z,98575.02
2019-02-10T05:31:26.904Z,98572.28
2019-02-10T05:34:32.082Z,98564.81
2019-02-10T05:37:37.222Z,98551.80
2019-02-10T05:40:43.313Z,98551.05
2019-02-10T05:43:48.478Z,98542.98
2019-02-10T05:46:53.595Z,98537.73
2019-02-10T05:49:58.754Z,98517.40
2019-02-10T05:53:03.872Z,98516.55
2019-02-10T05:56:09.104Z,98500.16
2019-02-10T05:59:14.247Z,98508.31
2019-02-10T06:02:26.905Z,98515.08
2019-02-10T06:05:32.597Z,98505.02
2019-02-10T06:08:37.689Z,98489.63
2019-02-10T06:11:42.909Z,98468.56
2019-02-10T06:14:48.113Z,98474.45
2019-02-10T06:17:53.270Z,98452.20
2019-02-10T06:20:58.455Z,98441.13
2019-02-10T06:24:03.707Z,98457.80
2019-02-10T06:27:08.873Z,98436.78
2019-02-10T06:30:14.028Z,98429.12
2019-02-10T06:33:19.159Z,98408.84
2019-02-10T06:36:24.230Z,98411.49
2019-02-10T06:39:29.436Z,98406.59
2019-02-10T06:42:34.589Z,98420.30
2019-02-10T06:45:39.723Z,98393.98
2019-02-10T06:48:45.979Z,98396.32
2019-02-10T06:51:51.113Z,98400.75
2019-02-10T06:54:56.375Z,98393.47
2019-02-10T06:58:01.461Z,98383.20
2019-02-10T07:01:24.267Z,98386.09
2019-02-10T07:04:31.164Z,98379.33
2019-02-10T07:07:36.293Z,98375.63
2019-02-10T07:10:41.432Z,98367.23
2019-02-10T07:13:50.415Z,98372.14
2019-02-10T07:17:47.516Z,98364.14
2019-02-10T07:20:52.725Z,98362.51
2019-02-10T07:24:17.289Z,98355.14
2019-02-10T07:27:28.630Z,98351.84
2019-02-10T07:30:41.200Z,98347.32
2019-02-10T07:34:29.550Z,98335.23
2019-02-10T07:37:59.095Z,98325.36
2019-02-10T07:42:00.690Z,98321.23
2019-02-10T07:45:29.205Z,98305.36
2019-02-10T07:49:15.558Z,98294.89
2019-02-10T07:52:58.526Z,98283.80
2019-02-10T07:56:55.954Z,98265.04
2019-02-10T08:00:45.162Z,98251.19
2019-02-10T08:04:05.245Z,98236.98
2019-02-10T08:07:45.525Z,98228.33
2019-02-10T08:11:31.309Z,98224.14
2019-02-10T08:15:07.366Z,98196.93
2019-02-10T08:18:29.572Z,98179.58
2019-02-10T08:22:05.910Z,98179.77
2019-02-10T08:25:51.933Z,98172.33
2019-02-10T08:29:38.129Z,98159.34
2019-02-10T08:33:09.386Z,98144.30
2019-02-10T08:36:25.505Z,98139.05
2019-02-10T08:40:12.909Z,98134.77
2019-02-10T08:43:41.580Z,98124.03
2019-02-10T08:47:12.198Z,98124.69
2019-02-10T08:50:43.208Z,98107.33
2019-02-10T08:53:48.513Z,98094.38
2019-02-10T08:56:53.702Z,98094.89
2019-02-10T08:59:58.823Z,98088.03
2019-02-10T09:03:03.980Z,98095.63
2019-02-10T09:06:09.169Z,98088.66
2019-02-10T09:09:14.335Z,98083.31
2019-02-10T09:12:19.460Z,98074.67
2019-02-10T09:15:24.627Z,98069.16
2019-02-10T09:18:29.794Z,98080.48
2019-02-10T09:21:35.072Z,98067.12
2019-02-10T09:24:40.263Z,98047.50
2019-02-10T09:27:45.394Z,98047.08
2019-02-10T09:30:50.514Z,98027.98
2019-02-10T09:33:55.674Z,98025.25
2019-02-10T09:37:00.797Z,98027.26
2019-02-10T09:40:06.271Z,98013.80
2019-02-10T09:43:11.385Z,98013.86
2019-02-10T09:46:16.448Z,98008.47
2019-02-10T09:49:21.591Z,97999.69
2019-02-10T09:52:26.698Z,97995.47
2019-02-10T09:55:31.848Z,97989.55
2019-02-10T09:58:37.040Z,97982.27
2019-02-10T10:01:42.146Z,97975.21
2019-02-10T10:04:47.309Z,97964.80
2019-02-10T10:07:52.446Z,97967.88
2019-02-10T10:10:57.582Z,97959.16
2019-02-10T10:14:02.675Z,97954.35
2019-02-10T10:17:07.793Z,97938.34
2019-02-10T10:20:14.613Z,97936.31
2019-02-10T10:23:19.746Z,97922.28
2019-02-10T10:26:24.838Z,97906.83
2019-02-10T10:29:30.317Z,97901.36
2019-02-10T10:32:35.472Z,97894.41
2019-02-10T10:35:40.704Z,97890.11
2019-02-10T10:38:45.890Z,97885.52
2019-02-10T10:41:51.025Z,97878.28
2019-02-10T10:44:57.285Z,97867.86
2019-02-10T10:48:02.410Z,97860.22
2019-02-10T10:51:07.554Z,97849.53
2019-02-10T10:54:12.657Z,97843.83
2019-02-10T10:57:17.857Z,97827.48
2019-02-10T11:00:22.982Z,97809.06
2019-02-10T11:03:28.123Z,97807.13
2019-02-10T11:06:34.037Z,97800.94
2019-02-10T11:09:39.232Z,97792.00
2019-02-10T11:12:44.388Z,97787.83
2019-02-10T11:15:49.491Z,97775.95
2019-02-10T11:18:54.798Z,97756.39
2019-02-10T11:21:59.900Z,97760.84
2019-02-10T11:25:06.336Z,97743.34
2019-02-10T11:28:11.357Z,97736.09
2019-02-10T11:31:17.590Z,97720.44
2019-02-10T11:34:22.743Z,97712.52
2019-02-10T11:37:27.985Z,97705.18
2019-02-10T11:40:33.140Z,97689.70
2019-02-10T11:43:38.359Z,97680.47
2019-02-10T11:46:45.052Z,97683.56
2019-02-10T11:49:50.201Z,97675.16
2019-02-10T11:52:55.341Z,97673.66
2019-02-10T11:56:00.567Z,97675.63
2019-02-10T11:59:05.787Z,97671.91
2019-02-10T12:02:10.980Z,97671.76
2019-02-10T12:05:16.079Z,97657.28
2019-02-10T12:08:21.257Z,97659.83
2019-02-10T12:11:26.343Z,97651.16
2019-02-10T12:14:31.542Z,97638.01
2019-02-10T12:17:36.665Z,97626.44
2019-02-10T12:20:42.389Z,97621.28
2019-02-10T12:23:48.561Z,97619.53
2019-02-10T12:26:53.696Z,97615.31
2019-02-10T12:29:58.891Z,97610.53
2019-02-10T12:33:04.177Z,97594.74
2019-02-10T12:36:09.396Z,97598.34
2019-02-10T12:39:14.655Z,97597.66
2019-02-10T12:42:19.968Z,97596.19
2019-02-10T12:45:25.093Z,97596.53
2019-02-10T12:48:30.335Z,97590.80
2019-02-10T12:51:35.500Z,97587.92
2019-02-10T12:54:40.667Z,97585.25
2019-02-10T12:57:45.763Z,97591.20
2019-02-10T13:00:51.044Z,97575.51
2019-02-10T13:03:57.277Z,97574.22
2019-02-10T13:07:02.408Z,97579.37
2019-02-10T13:10:09.176Z,97581.41
2019-02-10T13:13:19.351Z,97578.52
2019-02-10T13:16:21.414Z,97570.95
2019-02-10T13:19:26.661Z,97571.80
2019-02-10T13:22:31.816Z,97566.09
2019-02-10T13:25:37.033Z,97570.91
2019-02-10T13:28:49.115Z,97551.30
2019-02-10T13:31:54.337Z,97544.55
2019-02-10T13:34:59.496Z,97538.17
2019-02-10T13:38:04.686Z,97545.13
2019-02-10T13:41:09.856Z,97536.50
2019-02-10T13:44:15.000Z,97535.97
2019-02-10T13:47:21.178Z,97513.63
2019-02-10T13:50:26.342Z,97530.28
2019-02-10T13:53:31.522Z,97509.39
2019-02-10T13:56:36.895Z,97514.48
2019-02-10T13:59:42.055Z,97507.77
2019-02-10T14:02:47.247Z,97509.13
2019-02-10T14:05:52.375Z,97492.23
2019-02-10T14:08:57.609Z,97491.66
2019-02-10T14:12:02.712Z,97487.09
2019-02-10T14:15:09.814Z,97489.52
2019-02-10T14:18:14.994Z,97489.77
2019-02-10T14:21:20.191Z,97486.29
2019-02-10T14:24:25.340Z,97486.83
2019-02-10T14:27:30.531Z,97493.00
2019-02-10T14:30:35.791Z,97482.83
2019-02-10T14:33:40.925Z,97478.52
2019-02-10T14:36:46.138Z,97486.59
2019-02-10T14:39:51.286Z,97490.88
2019-02-10T14:42:56.467Z,97484.41
2019-02-10T14:46:01.675Z,97488.43
2019-02-10T14:49:06.805Z,97481.98
2019-02-10T14:52:12.049Z,97472.29
2019-02-10T14:55:17.273Z,97476.05
2019-02-10T14:58:22.526Z,97481.73
2019-02-10T15:01:27.632Z,97482.79
2019-02-10T15:04:32.838Z,97483.26
2019-02-10T15:07:39.185Z,97474.62
2019-02-10T15:10:44.337Z,97470.83
2019-02-10T15:13:49.676Z,97476.00
2019-02-10T15:16:54.902Z,97469.78
2019-02-10T15:20:00.148Z,97482.41
2019-02-10T15:23:05.323Z,97506.58
2019-02-10T15:26:10.433Z,97505.22
2019-02-10T15:29:15.529Z,97512.46
2019-02-10T15:32:20.837Z,97516.44
2019-02-10T15:35:26.199Z,97524.25
2019-02-10T15:38:31.345Z,97518.35
2019-02-10T15:41:36.537Z,97526.33
2019-02-10T15:44:41.671Z,97507.13
2019-02-10T15:47:46.893Z,97527.25
2019-02-10T15:50:52.005Z,97536.52
2019-02-10T15:53:57.463Z,97521.71
2019-02-10T15:57:02.621Z,97542.32
2019-02-10T16:00:10.930Z,97539.11
2019-02-10T16:03:16.379Z,97531.72
2019-02-10T16:06:21.486Z,97529.91
2019-02-10T16:09:26.616Z,97525.26
2019-02-10T16:12:31.864Z,97535.82
2019-02-10T16:15:37.021Z,97549.58
2019-02-10T16:18:42.231Z,97562.44
2019-02-10T16:21:47.446Z,97550.02
2019-02-10T16:24:52.620Z,97552.16
2019-02-10T16:27:57.673Z,97552.22
2019-02-10T16:31:02.945Z,97561.97
2019-02-10T16:34:08.116Z,97567.58
2019-02-10T16:37:13.192Z,97571.25
2019-02-10T16:40:18.684Z,97580.88
2019-02-10T16:43:24.846Z,97584.83
2019-02-10T16:46:29.988Z,97584.33
2019-02-10T16:49:35.155Z,97612.48
2019-02-10T16:52:41.469Z,97599.38
2019-02-10T16:55:46.725Z,97603.63
2019-02-10T16:58:51.911Z,97615.00
2019-02-10T17:01:57.104Z,97619.86
2019-02-10T17:05:02.231Z,97645.30
2019-02-10T17:08:07.380Z,97646.73
2019-02-10T17:11:14.373Z,97628.27
2019-02-10T17:14:19.393Z,97641.88
2019-02-10T17:17:24.606Z,97649.55
2019-02-10T17:20:29.882Z,97664.73
2019-02-10T17:23:35.155Z,97659.08
2019-02-10T17:26:40.279Z,97664.53
2019-02-10T17:29:45.554Z,97671.34
2019-02-10T17:32:50.666Z,97682.22
2019-02-10T17:35:55.766Z,97684.09
2019-02-10T17:39:00.953Z,97671.23
2019-02-10T17:42:07.784Z,97673.60
2019-02-10T17:45:12.946Z,97683.70
2019-02-10T17:48:18.207Z,97685.31
2019-02-10T17:51:23.350Z,97679.57
2019-02-10T17:54:28.784Z,97694.39
2019-02-10T17:57:33.961Z,97701.93
2019-02-10T18:00:43.443Z,97714.17
2019-02-10T18:03:48.715Z,97705.33
2019-02-10T18:06:53.992Z,97715.88
2019-02-10T18:09:59.167Z,97714.49
2019-02-10T18:13:04.440Z,97716.06
2019-02-10T18:16:34.339Z,97720.61
2019-02-10T18:19:52.775Z,97717.00
2019-02-10T18:23:07.509Z,97707.75
2019-02-10T18:26:47.147Z,97710.22
2019-02-10T18:30:09.497Z,97723.77
2019-02-10T18:33:36.474Z,97743.73
2019-02-10T18:37:03.693Z,97751.45
2019-02-10T18:40:20.036Z,97764.95
2019-02-10T18:43:37.864Z,97787.77
2019-02-10T18:47:06.209Z,97787.04
2019-02-10T18:50:19.468Z,97788.86
2019-02-10T18:53:42.576Z,97795.08
2019-02-10T18:56:59.674Z,97803.48
2019-02-10T19:00:23.976Z,97798.52
2019-02-10T19:03:34.269Z,97799.58
2019-02-10T19:07:10.869Z,97800.70
2019-02-10T19:10:53.416Z,97816.33
2019-02-10T19:14:11.597Z,97818.47
2019-02-10T19:17:41.555Z,97830.67
2019-02-10T19:21:04.322Z,97840.80
2019-02-10T19:24:28.511Z,97852.36
2019-02-10T19:28:07.884Z,97858.96
2019-02-10T19:31:27.176Z,97862.42
2019-02-10T19:35:00.657Z,97885.23
2019-02-10T19:38:26.023Z,97879.23
2019-02-10T19:41:38.175Z,97890.47
2019-02-10T19:45:01.684Z,97907.20
2019-02-10T19:48:28.628Z,97914.62
2019-02-10T19:51:43.148Z,97931.34
2019-02-10T19:55:13.087Z,97944.11
2019-02-10T19:58:36.063Z,97943.28
2019-02-10T20:01:58.969Z,97968.02
2019-02-10T20:05:23.132Z,97948.70
2019-02-10T20:08:47.273Z,97958.36
2019-02-10T20:12:04.369Z,97964.00
2019-02-10T20:15:16.588Z,97965.30
2019-02-10T20:18:37.927Z,97965.92
2019-02-10T20:22:11.262Z,97976.75
2019-02-10T20:25:35.835Z,97971.98
2019-02-10T20:29:13.415Z,97956.56
2019-02-10T20:32:36.470Z,97969.25
2019-02-10T20:36:20.569Z,97980.06
2019-02-10T20:39:50.736Z,97981.28
2019-02-10T20:43:17.929Z,97977.73
2019-02-10T20:46:42.063Z,97996.06
2019-02-10T20:50:05.037Z,97998.99
2019-02-10T20:53:33.252Z,97994.84
2019-02-10T20:57:00.295Z,97998.52
2019-02-10T21:00:15.767Z,98000.61
2019-02-10T21:03:42.626Z,97999.86
2019-02-10T21:07:06.768Z,97996.37
2019-02-10T21:10:30.986Z,98015.05
2019-02-10T21:13:55.181Z,97996.48
2019-02-10T21:17:10.627Z,98016.27
2019-02-10T21:20:25.003Z,98019.57
2019-02-10T21:23:38.034Z,98010.91
2019-02-10T21:27:00.848Z,98004.91
2019-02-10T21:30:21.616Z,98012.76
2019-02-10T21:33:36.361Z,98002.98
2019-02-10T21:36:49.404Z,98003.77
2019-02-10T21:40:19.388Z,97991.53
2019-02-10T21:43:42.347Z,97990.88
2019-02-10T21:46:55.395Z,97986.72
2019-02-10T21:50:00.517Z,97993.44
2019-02-10T21:53:05.770Z,98014.56
2019-02-10T21:56:11.993Z,98004.39
2019-02-10T21:59:18.269Z,98006.00
2019-02-10T22:02:23.576Z,98022.88
2019-02-10T22:05:28.729Z,98015.39
2019-02-10T22:08:33.870Z,98034.59
2019-02-10T22:11:39.104Z,98033.77
2019-02-10T22:14:44.297Z,98034.59
2019-02-10T22:17:49.444Z,98030.69
2019-02-10T22:20:54.624Z,98045.42
2019-02-10T22:23:59.892Z,98057.16
2019-02-10T22:27:05.024Z,98066.38
2019-02-10T22:30:13.273Z,98053.16
2019-02-10T22:33:18.463Z,98075.30
2019-02-10T22:36:23.758Z,98081.51
2019-02-10T22:39:28.849Z,98094.15
2019-02-10T22:42:33.961Z,98100.66
2019-02-10T22:45:39.151Z,98082.63
2019-02-10T22:48:44.312Z,98105.44
2019-02-10T22:51:49.510Z,98107.05
2019-02-10T22:54:54.868Z,98126.05
2019-02-10T22:58:00.153Z,98138.46
2019-02-10T23:01:06.859Z,98138.66
2019-02-10T23:04:13.634Z,98118.78
2019-02-10T23:07:18.812Z,98125.61
2019-02-10T23:10:23.947Z,98144.75
2019-02-10T23:13:29.327Z,98140.14
2019-02-10T23:16:34.686Z,98133.75
2019-02-10T23:19:39.834Z,98132.94
2019-02-10T23:22:45.001Z,98146.58
2019-02-10T23:25:50.125Z,98144.83
2019-02-10T23:28:55.259Z,98158.11
2019-02-10T23:32:00.755Z,98150.17
2019-02-10T23:35:07.127Z,98164.63
2019-02-10T23:38:12.229Z,98174.86
2019-02-10T23:41:17.330Z,98182.06
2019-02-10T23:44:22.518Z,98176.80
2019-02-10T23:47:27.870Z,98186.28
2019-02-10T23:50:33.049Z,98203.15
2019-02-10T23:53:38.313Z,98181.86
2019-02-10T23:56:47.268Z,98205.45
2019-02-10T23:59:50.398Z,98219.71
